createdAt,value
2022-10-28T00:00:49.276Z,5.22
2022-10-28T00:03:15.890Z,5.55
2022-10-28T00:05:42.307Z,7.50
2022-10-28T00:08:09.090Z,5.63
2022-10-28T00:10:36.066Z,5.38
2022-10-28T00:13:02.655Z,5.32
2022-10-28T00:15:29.260Z,5.30
2022-10-28T00:17:56.372Z,5.60
2022-10-28T00:20:22.904Z,5.95
2022-10-28T00:22:49.273Z,6.72
2022-10-28T00:25:16.227Z,6.07
2022-10-28T00:27:43.969Z,4.00
2022-10-28T00:30:11.299Z,4.45
2022-10-28T00:32:37.664Z,3.65
2022-10-28T00:35:04.355Z,3.17
2022-10-28T00:37:31.215Z,3.20
2022-10-28T00:39:57.615Z,3.33
2022-10-28T00:42:23.990Z,3.30
2022-10-28T00:44:56.798Z,3.30
2022-10-28T00:48:02.423Z,3.55
2022-10-28T00:50:47.064Z,2.83
2022-10-28T00:53:23.603Z,3.60
2022-10-28T00:55:51.435Z,3.90
2022-10-28T00:58:21.127Z,4.22
2022-10-28T01:00:47.483Z,4.43
2022-10-28T01:03:15.530Z,5.53
2022-10-28T01:05:44.235Z,5.00
2022-10-28T01:08:11.100Z,5.57
2022-10-28T01:11:01.419Z,6.68
2022-10-28T01:13:46.668Z,5.68
2022-10-28T01:19:08.767Z,5.47
2022-10-28T01:22:06.929Z,5.57
2022-10-28T01:24:52.286Z,6.20
2022-10-28T01:27:30.687Z,5.93
2022-10-28T01:30:11.724Z,5.55
2022-10-28T01:32:50.330Z,5.95
2022-10-28T01:35:34.024Z,6.88
2022-10-28T01:38:16.363Z,6.05
2022-10-28T01:40:58.162Z,6.07
2022-10-28T01:43:39.068Z,6.43
2022-10-28T01:46:13.075Z,5.75
2022-10-28T01:48:50.960Z,5.40
2022-10-28T01:51:26.254Z,4.90
2022-10-28T01:53:55.248Z,5.00
2022-10-28T01:56:28.384Z,4.75
2022-10-28T01:58:58.961Z,5.07
2022-10-28T02:01:27.385Z,5.78
2022-10-28T02:03:55.581Z,6.10
2022-10-28T02:06:25.365Z,5.50
2022-10-28T02:08:54.773Z,4.82
2022-10-28T02:11:37.005Z,5.20
2022-10-28T02:14:30.759Z,4.72
2022-10-28T02:17:12.663Z,4.50
2022-10-28T02:19:48.860Z,4.38
2022-10-28T02:22:24.979Z,4.70
2022-10-28T02:25:13.919Z,5.22
2022-10-28T02:27:48.638Z,4.13
2022-10-28T02:30:22.935Z,4.25
2022-10-28T02:32:57.121Z,3.83
2022-10-28T02:35:39.306Z,4.03
2022-10-28T02:38:19.052Z,3.42
2022-10-28T02:43:26.583Z,3.42
2022-10-28T02:45:57.703Z,4.10
2022-10-28T02:48:34.726Z,4.57
2022-10-28T02:51:08.979Z,3.83
2022-10-28T02:53:56.578Z,3.88
2022-10-28T02:56:23.143Z,4.07
2022-10-28T02:58:50.058Z,4.22
2022-10-28T03:01:17.088Z,4.15
2022-10-28T03:03:43.865Z,4.20
2022-10-28T03:06:10.270Z,4.30
2022-10-28T03:08:37.308Z,3.75
2022-10-28T03:11:03.662Z,3.75
2022-10-28T03:13:30.030Z,3.70
2022-10-28T03:15:56.692Z,4.72
2022-10-28T03:18:23.083Z,4.60
2022-10-28T03:20:49.435Z,4.10
2022-10-28T03:23:16.189Z,4.72
2022-10-28T03:25:42.907Z,5.18
2022-10-28T03:28:09.268Z,4.25
2022-10-28T03:30:35.748Z,4.45
2022-10-28T03:33:02.611Z,4.43
2022-10-28T03:35:28.958Z,3.88
2022-10-28T03:37:55.312Z,4.30
2022-10-28T03:40:22.385Z,3.92
2022-10-28T03:42:48.745Z,4.97
2022-10-28T03:45:15.197Z,4.47
2022-10-28T03:47:42.011Z,4.22
2022-10-28T03:50:10.071Z,3.97
2022-10-28T03:52:36.536Z,4.18
2022-10-28T03:55:03.161Z,3.80
2022-10-28T03:57:33.928Z,4.35
2022-10-28T04:00:00.378Z,4.40
2022-10-28T04:02:26.995Z,4.13
2022-10-28T04:04:54.046Z,4.93
2022-10-28T04:07:20.483Z,4.47
2022-10-28T04:09:49.769Z,4.22
2022-10-28T04:12:16.511Z,3.95
2022-10-28T04:14:42.942Z,3.72
2022-10-28T04:17:09.357Z,4.30
2022-10-28T04:19:36.330Z,3.78
2022-10-28T04:22:02.889Z,4.05
2022-10-28T04:24:29.243Z,4.13
2022-10-28T04:26:56.002Z,5.15
2022-10-28T04:29:22.368Z,4.38
2022-10-28T04:31:51.425Z,4.32
2022-10-28T04:34:19.312Z,4.90
2022-10-28T04:36:45.684Z,4.78
2022-10-28T04:39:12.026Z,5.25
2022-10-28T04:41:38.911Z,4.88
2022-10-28T04:44:05.327Z,4.90
2022-10-28T04:46:31.699Z,4.95
2022-10-28T04:48:58.676Z,4.63
2022-10-28T04:51:25.059Z,4.55
2022-10-28T04:53:51.445Z,5.55
2022-10-28T04:56:18.348Z,5.28
2022-10-28T04:58:44.743Z,4.43
2022-10-28T05:01:11.253Z,4.55
2022-10-28T05:03:38.325Z,4.10
2022-10-28T05:06:04.911Z,4.05
2022-10-28T05:08:31.865Z,4.45
2022-10-28T05:10:58.241Z,4.32
2022-10-28T05:13:24.691Z,3.97
2022-10-28T05:15:51.843Z,3.83
2022-10-28T05:18:18.712Z,3.92
2022-10-28T05:20:45.131Z,3.83
2022-10-28T05:23:11.541Z,4.10
2022-10-28T05:25:38.511Z,4.13
2022-10-28T05:28:05.047Z,3.55
2022-10-28T05:30:32.039Z,4.10
2022-10-28T05:33:01.004Z,4.18
2022-10-28T05:35:28.464Z,3.50
2022-10-28T05:37:55.683Z,3.92
2022-10-28T05:40:22.474Z,3.85
2022-10-28T05:42:48.891Z,3.72
2022-10-28T05:45:15.489Z,4.40
2022-10-28T05:47:44.106Z,4.20
2022-10-28T05:50:12.294Z,4.35
2022-10-28T05:52:38.809Z,4.82
2022-10-28T05:55:06.381Z,4.47
2022-10-28T05:57:36.339Z,4.50
2022-10-28T06:00:04.219Z,4.72
2022-10-28T06:02:30.927Z,4.70
2022-10-28T06:04:57.304Z,5.15
2022-10-28T06:07:24.522Z,4.75
2022-10-28T06:09:51.599Z,4.97
2022-10-28T06:12:16.440Z,5.55
2022-10-28T06:14:42.799Z,6.00
2022-10-28T06:17:10.192Z,5.35
2022-10-28T06:19:36.562Z,5.85
2022-10-28T06:22:03.926Z,6.07
2022-10-28T06:24:30.690Z,5.03
2022-10-28T06:26:57.101Z,5.57
2022-10-28T06:29:23.524Z,5.03
2022-10-28T06:31:50.288Z,4.82
2022-10-28T06:34:16.642Z,6.10
2022-10-28T06:36:43.008Z,5.50
2022-10-28T06:39:09.960Z,6.18
2022-10-28T06:41:36.311Z,5.60
2022-10-28T06:44:03.259Z,5.80
2022-10-28T06:46:30.417Z,7.18
2022-10-28T06:48:58.377Z,6.20
2022-10-28T06:51:24.806Z,6.75
2022-10-28T06:53:52.825Z,6.30
2022-10-28T06:56:19.243Z,6.88
2022-10-28T06:58:50.709Z,6.57
2022-10-28T07:01:17.968Z,6.82
2022-10-28T07:03:44.998Z,7.05
2022-10-28T07:06:11.481Z,7.10
2022-10-28T07:08:38.609Z,7.97
2022-10-28T07:11:05.394Z,6.80
2022-10-28T07:13:31.763Z,7.03
2022-10-28T07:16:00.414Z,7.28
2022-10-28T07:18:29.397Z,7.93
2022-10-28T07:21:00.803Z,8.07
2022-10-28T07:23:28.045Z,8.98
2022-10-28T07:25:55.880Z,9.38
2022-10-28T07:28:24.025Z,9.05
2022-10-28T07:30:50.427Z,8.65
2022-10-28T07:33:17.295Z,8.80
2022-10-28T07:35:44.737Z,9.77
2022-10-28T07:38:11.461Z,9.93
2022-10-28T07:40:38.159Z,10.85
2022-10-28T07:43:05.165Z,11.07
2022-10-28T07:45:31.535Z,11.30
2022-10-28T07:47:58.321Z,11.63
2022-10-28T07:50:24.705Z,12.20
2022-10-28T07:52:51.396Z,10.52
2022-10-28T07:55:18.442Z,10.65
2022-10-28T07:57:45.206Z,11.10
2022-10-28T08:00:11.862Z,12.23
2022-10-28T08:02:38.424Z,11.50
2022-10-28T08:05:05.346Z,11.52
2022-10-28T08:07:34.792Z,12.70
2022-10-28T08:10:05.122Z,12.70
2022-10-28T08:12:31.494Z,13.50
2022-10-28T08:14:57.868Z,17.45
2022-10-28T08:17:24.680Z,15.90
2022-10-28T08:19:51.094Z,17.08
2022-10-28T08:22:18.381Z,15.45
2022-10-28T08:24:44.753Z,17.52
2022-10-28T08:27:11.335Z,16.13
2022-10-28T08:29:37.952Z,14.45
2022-10-28T08:32:04.424Z,13.07
2022-10-28T08:34:31.252Z,12.02
2022-10-28T08:36:58.236Z,11.63
2022-10-28T08:39:24.670Z,11.65
2022-10-28T08:42:09.282Z,10.90
2022-10-28T08:45:10.861Z,12.52
2022-10-28T08:48:13.575Z,10.10
2022-10-28T08:50:50.333Z,10.23
2022-10-28T08:53:21.484Z,10.60
2022-10-28T08:55:50.034Z,10.88
2022-10-28T08:58:27.051Z,10.95
2022-10-28T09:00:55.829Z,11.38
2022-10-28T09:03:29.772Z,10.57
2022-10-28T09:06:05.517Z,11.20
2022-10-28T09:08:37.082Z,11.23
2022-10-28T09:11:15.591Z,9.65
2022-10-28T09:14:06.786Z,9.20
2022-10-28T09:16:54.852Z,8.27
2022-10-28T09:19:27.188Z,8.82
2022-10-28T09:22:21.372Z,6.88
2022-10-28T09:25:00.943Z,7.50
2022-10-28T09:28:05.321Z,5.28
2022-10-28T09:30:50.491Z,6.03
2022-10-28T09:33:26.867Z,5.45
2022-10-28T09:35:54.185Z,5.55
2022-10-28T09:38:32.718Z,5.00
2022-10-28T09:41:06.436Z,5.75
2022-10-28T09:43:43.057Z,4.40
2022-10-28T09:46:15.366Z,4.43
2022-10-28T09:48:46.101Z,4.00
2022-10-28T09:51:43.187Z,4.80
2022-10-28T09:54:11.716Z,4.22
2022-10-28T09:56:38.493Z,4.50
2022-10-28T09:59:05.809Z,5.15
2022-10-28T10:01:35.953Z,4.45
2022-10-28T10:04:11.156Z,4.40
2022-10-28T10:06:43.122Z,5.78
2022-10-28T10:09:20.091Z,4.00
2022-10-28T10:11:49.261Z,4.20
2022-10-28T10:14:20.153Z,4.13
2022-10-28T10:16:52.534Z,3.72
2022-10-28T10:19:18.866Z,3.45
2022-10-28T10:21:47.953Z,4.25
2022-10-28T10:24:33.625Z,3.90
2022-10-28T10:27:17.362Z,3.75
2022-10-28T10:29:46.240Z,4.20
2022-10-28T10:32:27.853Z,4.57
2022-10-28T10:35:13.123Z,4.63
2022-10-28T10:37:44.377Z,4.68
2022-10-28T10:40:26.522Z,6.45
2022-10-28T10:43:12.716Z,6.45
2022-10-28T10:45:40.550Z,6.45
2022-10-28T10:48:14.071Z,6.88
2022-10-28T10:50:43.684Z,7.10
2022-10-28T10:53:25.816Z,7.20
2022-10-28T10:55:55.673Z,7.05
2022-10-28T10:58:27.118Z,8.25
2022-10-28T11:00:56.291Z,8.45
2022-10-28T11:03:30.161Z,8.55
2022-10-28T11:06:22.600Z,7.10
2022-10-28T11:08:45.494Z,6.15
2022-10-28T11:11:20.599Z,6.55
2022-10-28T11:13:49.044Z,5.93
2022-10-28T11:16:23.926Z,5.43
2022-10-28T11:18:53.082Z,5.15
2022-10-28T11:21:44.427Z,5.95
2022-10-28T11:24:42.825Z,5.43
2022-10-28T11:27:21.159Z,5.22
2022-10-28T11:29:48.515Z,3.72
2022-10-28T11:32:41.122Z,4.20
2022-10-28T11:35:28.627Z,4.82
2022-10-28T11:38:03.871Z,4.30
2022-10-28T11:40:33.149Z,3.72
2022-10-28T11:43:18.230Z,4.18
2022-10-28T11:45:53.401Z,4.05
2022-10-28T11:48:39.413Z,3.42
2022-10-28T11:51:28.663Z,4.10
2022-10-28T11:54:07.984Z,3.35
2022-10-28T11:56:43.474Z,3.15
2022-10-28T11:59:34.818Z,3.33
2022-10-28T12:02:26.867Z,4.45
2022-10-28T12:05:22.854Z,3.63
2022-10-28T12:08:19.095Z,3.55
2022-10-28T12:11:29.192Z,3.53
2022-10-28T12:14:38.602Z,3.63
2022-10-28T12:17:27.460Z,3.22
2022-10-28T12:20:08.114Z,3.50
2022-10-28T12:22:46.667Z,3.30
2022-10-28T12:25:18.045Z,3.15
2022-10-28T12:27:48.125Z,3.53
2022-10-28T12:30:21.154Z,3.25
2022-10-28T12:32:53.222Z,3.45
2022-10-28T12:35:33.006Z,3.20
2022-10-28T12:38:25.912Z,3.13
2022-10-28T12:41:06.427Z,3.17
2022-10-28T12:43:39.003Z,3.80
2022-10-28T12:46:09.888Z,3.72
2022-10-28T12:48:47.059Z,3.50
2022-10-28T12:51:23.727Z,3.72
2022-10-28T12:54:00.591Z,4.60
2022-10-28T12:56:37.522Z,3.50
2022-10-28T12:59:13.548Z,3.60
2022-10-28T13:01:40.883Z,3.40
2022-10-28T13:04:12.364Z,3.70
2022-10-28T13:07:16.918Z,4.35
2022-10-28T13:10:15.819Z,3.72
2022-10-28T13:13:07.972Z,3.67
2022-10-28T13:15:48.974Z,3.40
2022-10-28T13:18:30.909Z,3.88
2022-10-28T13:21:19.098Z,3.28
2022-10-28T13:23:59.990Z,7.00
2022-10-28T13:26:37.735Z,4.03
2022-10-28T13:29:18.437Z,3.25
2022-10-28T13:31:46.596Z,3.58
2022-10-28T13:34:15.879Z,3.30
2022-10-28T13:36:45.959Z,3.65
2022-10-28T13:39:33.423Z,3.80
2022-10-28T13:42:16.460Z,3.70
2022-10-28T13:44:56.129Z,3.70
2022-10-28T13:47:26.690Z,3.65
2022-10-28T13:50:08.468Z,3.22
2022-10-28T13:52:46.744Z,3.30
2022-10-28T13:55:16.118Z,3.92
2022-10-28T13:57:46.390Z,3.55
2022-10-28T14:00:19.637Z,3.53
2022-10-28T14:02:49.104Z,4.28
2022-10-28T14:05:21.458Z,3.10
2022-10-28T14:08:00.059Z,2.78
2022-10-28T14:10:32.988Z,3.20
2022-10-28T14:13:03.254Z,2.80
2022-10-28T14:15:34.399Z,2.70
2022-10-28T14:18:15.871Z,3.10
2022-10-28T14:20:49.646Z,3.45
2022-10-28T14:23:22.294Z,3.03
2022-10-28T14:25:52.263Z,2.80
2022-10-28T14:28:27.996Z,3.13
2022-10-28T14:31:21.316Z,3.47
2022-10-28T14:33:53.921Z,2.63
2022-10-28T14:36:20.192Z,3.35
2022-10-28T14:38:58.005Z,2.90
2022-10-28T14:41:35.423Z,2.67
2022-10-28T14:44:08.254Z,2.88
2022-10-28T14:46:44.326Z,2.90
2022-10-28T14:49:32.114Z,3.03
2022-10-28T14:52:08.802Z,2.83
2022-10-28T14:54:46.999Z,2.50
2022-10-28T14:57:14.131Z,2.63
2022-10-28T14:59:43.594Z,3.40
2022-10-28T15:02:21.110Z,2.60
2022-10-28T15:04:57.465Z,3.33
2022-10-28T15:07:24.566Z,2.80
2022-10-28T15:09:53.357Z,3.20
2022-10-28T15:12:23.105Z,3.15
2022-10-28T15:14:52.176Z,3.35
2022-10-28T15:17:21.101Z,4.07
2022-10-28T15:19:51.116Z,4.03
2022-10-28T15:22:25.178Z,2.65
2022-10-28T15:24:56.421Z,3.55
2022-10-28T15:27:24.405Z,2.97
2022-10-28T15:29:51.048Z,3.45
2022-10-28T15:32:20.382Z,2.90
2022-10-28T15:34:47.917Z,2.85
2022-10-28T15:37:22.047Z,3.38
2022-10-28T15:40:06.389Z,3.03
2022-10-28T15:42:43.684Z,2.65
2022-10-28T15:45:19.496Z,2.55
2022-10-28T15:47:47.222Z,2.38
2022-10-28T15:50:16.312Z,2.80
2022-10-28T15:52:48.193Z,3.00
2022-10-28T15:55:35.879Z,3.00
2022-10-28T15:58:18.063Z,2.60
2022-10-28T16:00:57.078Z,2.90
2022-10-28T16:03:43.217Z,2.75
2022-10-28T16:06:22.485Z,2.55
2022-10-28T16:08:59.957Z,2.60
2022-10-28T16:11:27.045Z,2.05
2022-10-28T16:13:53.443Z,2.75
2022-10-28T16:16:27.112Z,2.03
2022-10-28T16:19:10.377Z,2.20
2022-10-28T16:21:38.639Z,2.35
2022-10-28T16:24:05.206Z,2.40
2022-10-28T16:26:33.228Z,2.38
2022-10-28T16:28:59.564Z,2.60
2022-10-28T16:31:29.122Z,2.38
2022-10-28T16:33:55.707Z,2.60
2022-10-28T16:36:22.031Z,2.55
2022-10-28T16:38:49.108Z,2.40
2022-10-28T16:41:18.666Z,2.50
2022-10-28T16:43:45.646Z,2.20
2022-10-28T16:46:13.980Z,2.88
2022-10-28T16:48:40.968Z,2.60
2022-10-28T16:51:18.373Z,2.65
2022-10-28T16:53:47.560Z,3.20
2022-10-28T16:56:17.963Z,3.92
2022-10-28T16:58:44.437Z,2.50
2022-10-28T17:01:12.059Z,2.95
2022-10-28T17:03:38.542Z,3.00
2022-10-28T17:06:05.065Z,2.63
2022-10-28T17:09:00.830Z,2.38
2022-10-28T17:11:18.015Z,2.60
2022-10-28T17:13:44.386Z,2.65
2022-10-28T17:16:12.937Z,2.85
2022-10-28T17:18:39.473Z,2.50
2022-10-28T17:21:06.147Z,2.50
2022-10-28T17:23:32.835Z,3.70
2022-10-28T17:26:02.985Z,3.42
2022-10-28T17:28:29.531Z,2.40
2022-10-28T17:31:06.980Z,2.83
2022-10-28T17:33:34.766Z,2.80
2022-10-28T17:36:02.616Z,2.70
2022-10-28T17:38:30.014Z,2.53
2022-10-28T17:40:57.178Z,2.40
2022-10-28T17:43:23.794Z,2.40
2022-10-28T17:45:50.893Z,2.13
2022-10-28T17:48:17.626Z,3.63
2022-10-28T17:50:45.049Z,3.10
2022-10-28T17:53:11.801Z,3.13
2022-10-28T17:55:38.652Z,4.10
2022-10-28T17:58:05.005Z,3.38
2022-10-28T18:00:31.334Z,3.55
2022-10-28T18:02:58.177Z,4.03
2022-10-28T18:05:24.576Z,3.00
2022-10-28T18:07:54.886Z,3.33
2022-10-28T18:10:21.949Z,3.72
2022-10-28T18:12:51.296Z,4.05
2022-10-28T18:15:17.652Z,3.53
2022-10-28T18:17:44.355Z,4.00
2022-10-28T18:20:11.072Z,3.17
2022-10-28T18:22:37.809Z,3.72
2022-10-28T18:25:04.478Z,3.80
2022-10-28T18:27:31.200Z,4.20
2022-10-28T18:29:57.888Z,4.38
2022-10-28T18:32:24.202Z,4.78
2022-10-28T18:34:50.628Z,3.85
2022-10-28T18:37:17.135Z,5.10
2022-10-28T18:39:43.446Z,3.83
2022-10-28T18:42:12.309Z,3.97
2022-10-28T18:44:39.265Z,4.20
2022-10-28T18:47:06.820Z,5.65
2022-10-28T18:49:33.173Z,6.18
2022-10-28T18:52:00.143Z,5.03
2022-10-28T18:54:26.456Z,4.75
2022-10-28T18:56:56.547Z,5.00
2022-10-28T18:59:24.030Z,5.20
2022-10-28T19:01:50.447Z,4.50
2022-10-28T19:04:16.913Z,4.13
2022-10-28T19:06:43.632Z,3.72
2022-10-28T19:09:09.998Z,4.28
2022-10-28T19:11:36.428Z,4.05
2022-10-28T19:14:06.353Z,4.47
2022-10-28T19:16:34.025Z,4.75
2022-10-28T19:19:02.397Z,4.53
2022-10-28T19:21:29.690Z,4.38
2022-10-28T19:23:56.114Z,4.40
2022-10-28T19:26:22.956Z,4.22
2022-10-28T19:28:52.797Z,4.60
2022-10-28T19:31:21.275Z,4.45
2022-10-28T19:33:49.260Z,5.00
2022-10-28T19:36:20.085Z,4.90
2022-10-28T19:38:48.687Z,4.80
2022-10-28T19:41:17.628Z,3.95
2022-10-28T19:43:45.290Z,4.05
2022-10-28T19:46:19.877Z,4.05
2022-10-28T19:48:50.362Z,3.97
2022-10-28T19:51:21.985Z,5.32
2022-10-28T19:53:52.709Z,5.03
2022-10-28T19:56:20.368Z,4.47
2022-10-28T19:58:55.144Z,4.22
2022-10-28T20:03:53.155Z,4.15
2022-10-28T20:06:22.322Z,5.10
2022-10-28T20:08:49.453Z,5.50
2022-10-28T20:11:24.837Z,6.72
2022-10-28T20:13:58.852Z,5.43
2022-10-28T20:16:25.767Z,5.45
2022-10-28T20:18:54.032Z,5.47
2022-10-28T20:21:21.922Z,5.75
2022-10-28T20:26:24.674Z,5.20
2022-10-28T20:28:51.589Z,5.00
2022-10-28T20:31:20.210Z,4.45
2022-10-28T20:33:52.661Z,4.30
2022-10-28T20:36:35.645Z,4.90
2022-10-28T20:39:11.025Z,4.25
2022-10-28T20:41:38.515Z,5.05
2022-10-28T20:44:06.167Z,4.90
2022-10-28T20:46:33.523Z,4.00
2022-10-28T20:49:00.792Z,4.68
2022-10-28T20:51:29.128Z,4.18
2022-10-28T20:53:55.866Z,4.10
2022-10-28T20:56:24.395Z,4.80
2022-10-28T20:58:51.797Z,4.88
2022-10-28T21:01:25.809Z,4.68
2022-10-28T21:03:58.014Z,4.55
2022-10-28T21:06:25.850Z,4.90
2022-10-28T21:08:53.485Z,4.75
2022-10-28T21:11:20.574Z,4.55
2022-10-28T21:13:56.358Z,4.38
2022-10-28T21:16:23.746Z,5.07
2022-10-28T21:18:50.487Z,4.90
2022-10-28T21:21:19.589Z,4.80
2022-10-28T21:23:46.210Z,4.47
2022-10-28T21:26:13.193Z,4.90
2022-10-28T21:28:43.519Z,4.88
2022-10-28T21:31:16.169Z,4.47
2022-10-28T21:33:42.959Z,5.10
2022-10-28T21:36:12.357Z,4.93
2022-10-28T21:38:39.143Z,5.30
2022-10-28T21:41:13.505Z,5.65
2022-10-28T21:43:42.180Z,5.95
2022-10-28T21:46:09.101Z,6.88
2022-10-28T21:48:36.316Z,5.80
2022-10-28T21:51:08.563Z,6.55
2022-10-28T21:53:38.894Z,6.97
2022-10-28T21:56:11.113Z,7.22
2022-10-28T21:58:41.105Z,7.18
2022-10-28T22:01:10.987Z,6.85
2022-10-28T22:03:37.810Z,6.85
2022-10-28T22:06:04.258Z,6.70
2022-10-28T22:08:31.210Z,7.20
2022-10-28T22:10:59.521Z,7.00
2022-10-28T22:13:26.281Z,7.15
2022-10-28T22:15:58.162Z,6.80
2022-10-28T22:18:24.822Z,7.22
2022-10-28T22:20:51.740Z,7.55
2022-10-28T22:23:18.066Z,8.02
2022-10-28T22:25:44.391Z,8.07
2022-10-28T22:28:11.522Z,8.45
2022-10-28T22:30:37.847Z,9.85
2022-10-28T22:33:04.296Z,10.18
2022-10-28T22:35:30.978Z,9.75
2022-10-28T22:37:57.619Z,10.25
2022-10-28T22:40:24.176Z,9.38
2022-10-28T22:42:51.005Z,9.10
2022-10-28T22:45:17.310Z,8.25
2022-10-28T22:47:43.614Z,7.68
2022-10-28T22:50:10.474Z,6.90
2022-10-28T22:52:36.795Z,6.70
2022-10-28T22:55:03.169Z,6.93
2022-10-28T22:57:29.879Z,7.18
2022-10-28T22:59:56.195Z,7.20
2022-10-28T23:02:22.821Z,6.20
2022-10-28T23:04:49.762Z,6.93
2022-10-28T23:07:16.071Z,7.43
2022-10-28T23:09:42.382Z,6.80
2022-10-28T23:12:09.205Z,6.85
2022-10-28T23:14:35.516Z,6.47
2022-10-28T23:17:01.855Z,6.47
2022-10-28T23:19:28.574Z,7.63
2022-10-28T23:21:54.914Z,8.63
2022-10-28T23:24:21.595Z,6.07
2022-10-28T23:26:47.988Z,6.60
2022-10-28T23:29:14.943Z,6.57
2022-10-28T23:31:41.257Z,4.65
2022-10-28T23:34:07.593Z,5.20
2022-10-28T23:36:35.245Z,5.63
2022-10-28T23:39:01.545Z,5.60
2022-10-28T23:41:27.899Z,7.60
2022-10-28T23:43:54.708Z,8.13
2022-10-28T23:46:21.465Z,8.25
2022-10-28T23:48:48.185Z,7.55
2022-10-28T23:51:14.509Z,8.85
2022-10-28T23:53:40.852Z,8.55
2022-10-28T23:56:07.858Z,8.90
2022-10-28T23:58:34.186Z,9.15
